createdAt,value
2018-03-25T00:01:59.098Z,99673
2018-03-25T00:04:27.185Z,99668
2018-03-25T00:06:55.280Z,99673
2018-03-25T00:09:23.376Z,99673
2018-03-25T00:11:51.563Z,99670
2018-03-25T00:14:19.669Z,99681
2018-03-25T00:16:49.760Z,99675
2018-03-25T00:19:18.119Z,99677
2018-03-25T00:21:47.294Z,99675
2018-03-25T00:24:16.240Z,99682
2018-03-25T00:26:45.520Z,99679
2018-03-25T00:29:14.349Z,99678
2018-03-25T00:31:43.245Z,99673
2018-03-25T00:34:11.376Z,99679
2018-03-25T00:36:40.555Z,99688
2018-03-25T00:39:08.669Z,99680
2018-03-25T00:41:37.521Z,99681
2018-03-25T00:44:06.677Z,99679
2018-03-25T00:46:34.824Z,99672
2018-03-25T00:49:02.971Z,99675
2018-03-25T00:51:31.057Z,99668
2018-03-25T00:53:59.434Z,99680
2018-03-25T00:56:27.536Z,99677
2018-03-25T00:58:55.644Z,99664
2018-03-25T01:01:23.713Z,99675
2018-03-25T01:03:51.792Z,99674
2018-03-25T01:06:19.942Z,99665
2018-03-25T01:08:48.031Z,99674
2018-03-25T01:11:16.340Z,99676
2018-03-25T01:13:44.421Z,99669
2018-03-25T01:16:12.508Z,99670
2018-03-25T01:18:41.352Z,99665
2018-03-25T01:21:09.755Z,99671
2018-03-25T01:23:37.848Z,99662
2018-03-25T01:26:05.919Z,99659
2018-03-25T01:28:34.792Z,99656
2018-03-25T01:31:02.864Z,99663
2018-03-25T01:33:31.743Z,99665
2018-03-25T01:35:59.942Z,99660
2018-03-25T01:38:28.037Z,99669
2018-03-25T01:40:58.858Z,99667
2018-03-25T01:43:26.956Z,99672
2018-03-25T01:45:55.158Z,99671
2018-03-25T01:48:23.261Z,99666
2018-03-25T01:50:51.591Z,99659
2018-03-25T01:53:20.605Z,99665
2018-03-25T01:55:48.709Z,99664
2018-03-25T01:58:16.783Z,99671
2018-03-25T02:00:44.869Z,99665
2018-03-25T02:03:12.934Z,99671
2018-03-25T02:05:41.020Z,99668
2018-03-25T02:08:09.091Z,99673
2018-03-25T02:10:37.161Z,99670
2018-03-25T02:13:05.250Z,99674
2018-03-25T02:15:33.323Z,99671
2018-03-25T02:18:01.500Z,99674
2018-03-25T02:20:29.584Z,99680
2018-03-25T02:22:57.651Z,99675
2018-03-25T02:25:25.885Z,99681
2018-03-25T02:27:53.985Z,99681
2018-03-25T02:30:22.033Z,99682
2018-03-25T02:32:51.250Z,99688
2018-03-25T02:35:19.407Z,99684
2018-03-25T02:37:48.343Z,99680
2018-03-25T02:40:16.442Z,99687
2018-03-25T02:42:44.711Z,99691
2018-03-25T02:45:12.806Z,99697
2018-03-25T02:47:40.887Z,99697
2018-03-25T02:50:08.969Z,99696
2018-03-25T02:52:37.072Z,99698
2018-03-25T02:55:05.202Z,99700
2018-03-25T02:57:34.190Z,99702
2018-03-25T03:00:02.283Z,99694
2018-03-25T03:02:31.170Z,99702
2018-03-25T03:04:59.218Z,99708
2018-03-25T03:07:27.290Z,99698
2018-03-25T03:09:55.506Z,99700
2018-03-25T03:12:23.597Z,99700
2018-03-25T03:14:51.692Z,99703
2018-03-25T03:17:19.774Z,99699
2018-03-25T03:19:47.862Z,99709
2018-03-25T03:22:16.172Z,99711
2018-03-25T03:24:44.346Z,99707
2018-03-25T03:27:12.419Z,99711
2018-03-25T03:29:40.508Z,99718
2018-03-25T03:32:08.577Z,99720
2018-03-25T03:34:36.765Z,99723
2018-03-25T03:37:04.821Z,99724
2018-03-25T03:39:33.560Z,99724
2018-03-25T03:42:01.660Z,99727
2018-03-25T03:44:29.723Z,99727
2018-03-25T03:46:57.828Z,99735
2018-03-25T03:49:25.991Z,99742
2018-03-25T03:51:54.113Z,99738
2018-03-25T03:54:22.213Z,99737
2018-03-25T03:56:50.299Z,99748
2018-03-25T03:59:18.369Z,99742
2018-03-25T04:01:47.181Z,99742
2018-03-25T04:04:15.507Z,99745
2018-03-25T04:06:43.580Z,99746
2018-03-25T04:09:11.689Z,99750
2018-03-25T04:11:39.775Z,99753
2018-03-25T04:14:07.957Z,99749
2018-03-25T04:16:36.019Z,99744
2018-03-25T04:19:04.144Z,99749
2018-03-25T04:21:32.220Z,99753
2018-03-25T04:24:00.349Z,99756
2018-03-25T04:26:28.425Z,99755
2018-03-25T04:28:56.515Z,99752
2018-03-25T04:31:24.610Z,99754
2018-03-25T04:33:53.478Z,99754
2018-03-25T04:36:21.579Z,99749
2018-03-25T04:38:50.449Z,99754
2018-03-25T04:41:18.532Z,99750
2018-03-25T04:43:46.756Z,99756
2018-03-25T04:46:14.844Z,99752
2018-03-25T04:48:43.144Z,99745
2018-03-25T04:51:12.139Z,99760
2018-03-25T04:53:40.230Z,99753
2018-03-25T04:56:08.355Z,99753
2018-03-25T04:58:36.416Z,99757
2018-03-25T05:01:04.503Z,99761
2018-03-25T05:03:32.584Z,99763
2018-03-25T05:06:00.652Z,99762
2018-03-25T05:08:28.751Z,99765
2018-03-25T05:10:57.081Z,99763
2018-03-25T05:13:25.166Z,99762
2018-03-25T05:15:53.264Z,99775
2018-03-25T05:18:21.351Z,99772
2018-03-25T05:20:49.511Z,99776
2018-03-25T05:23:17.587Z,99781
2018-03-25T05:25:49.302Z,99777
2018-03-25T05:28:18.197Z,99784
2018-03-25T05:30:46.304Z,99787
2018-03-25T05:33:14.389Z,99791
2018-03-25T05:35:42.474Z,99789
2018-03-25T05:38:11.334Z,99794
2018-03-25T05:40:39.431Z,99794
2018-03-25T05:43:07.596Z,99805
2018-03-25T05:45:35.971Z,99805
2018-03-25T05:48:05.191Z,99793
2018-03-25T05:50:34.087Z,99806
2018-03-25T05:53:02.938Z,99802
2018-03-25T05:55:32.058Z,99804
2018-03-25T05:58:00.900Z,99796
2018-03-25T06:00:30.060Z,99810
2018-03-25T06:02:58.144Z,99810
2018-03-25T06:05:26.215Z,99809
2018-03-25T06:07:54.300Z,99813
2018-03-25T06:10:22.389Z,99822
2018-03-25T06:12:50.456Z,99812
2018-03-25T06:15:18.547Z,99831
2018-03-25T06:17:46.646Z,99830
2018-03-25T06:20:14.826Z,99835
2018-03-25T06:22:42.932Z,99829
2018-03-25T06:25:12.084Z,99836
2018-03-25T06:27:40.177Z,99848
2018-03-25T06:30:09.716Z,99846
2018-03-25T06:32:37.818Z,99847
2018-03-25T06:35:06.022Z,99850
2018-03-25T06:37:37.333Z,99857
2018-03-25T06:40:05.361Z,99861
2018-03-25T06:42:33.553Z,99868
2018-03-25T06:45:01.737Z,99856
2018-03-25T06:47:30.064Z,99867
2018-03-25T06:49:58.164Z,99859
2018-03-25T06:52:26.431Z,99878
2018-03-25T06:54:54.523Z,99877
2018-03-25T06:57:22.863Z,99886
2018-03-25T06:59:51.734Z,99887
2018-03-25T07:02:19.826Z,99897
2018-03-25T07:04:47.912Z,99892
2018-03-25T07:07:15.984Z,99900
2018-03-25T07:09:44.084Z,99907
2018-03-25T07:12:12.179Z,99903
2018-03-25T07:14:40.297Z,99905
2018-03-25T07:17:09.255Z,99912
2018-03-25T07:19:37.329Z,99919
2018-03-25T07:22:06.273Z,99916
2018-03-25T07:24:34.356Z,99919
2018-03-25T07:27:02.448Z,99931
2018-03-25T07:29:30.506Z,99920
2018-03-25T07:31:58.599Z,99932
2018-03-25T07:34:26.817Z,99934
2018-03-25T07:36:54.907Z,99937
2018-03-25T07:39:22.987Z,99940
2018-03-25T07:41:51.131Z,99942
2018-03-25T07:44:20.699Z,99943
2018-03-25T07:46:48.816Z,99945
2018-03-25T07:49:16.941Z,99944
2018-03-25T07:51:45.020Z,99946
2018-03-25T07:54:13.109Z,99944
2018-03-25T07:56:41.299Z,99954
2018-03-25T07:59:10.136Z,99953
2018-03-25T08:01:38.239Z,99952
2018-03-25T08:04:06.315Z,99958
2018-03-25T08:06:34.444Z,99961
2018-03-25T08:09:02.529Z,99953
2018-03-25T08:11:34.728Z,99957
2018-03-25T08:14:03.656Z,99964
2018-03-25T08:16:34.960Z,99973
2018-03-25T08:19:03.391Z,99962
2018-03-25T08:21:32.531Z,99960
2018-03-25T08:24:04.195Z,99967
2018-03-25T08:26:32.560Z,99964
2018-03-25T08:29:00.759Z,99970
2018-03-25T08:31:28.861Z,99977
2018-03-25T08:33:57.111Z,99973
2018-03-25T08:36:25.312Z,99975
2018-03-25T08:38:53.516Z,99984
2018-03-25T08:41:22.332Z,99971
2018-03-25T08:43:50.511Z,99978
2018-03-25T08:46:18.640Z,99977
2018-03-25T08:48:47.748Z,99988
2018-03-25T08:51:16.124Z,99987
2018-03-25T08:53:44.482Z,99988
2018-03-25T08:56:12.598Z,99987
2018-03-25T08:58:40.696Z,99984
2018-03-25T09:01:08.768Z,99984
2018-03-25T09:03:38.333Z,99985
2018-03-25T09:06:06.420Z,99979
2018-03-25T09:08:39.813Z,99973
2018-03-25T09:11:08.939Z,99974
2018-03-25T09:13:38.058Z,99981
2018-03-25T09:16:09.271Z,99982
2018-03-25T09:18:38.387Z,99977
2018-03-25T09:21:06.560Z,99986
2018-03-25T09:23:34.775Z,99982
2018-03-25T09:26:04.196Z,99986
2018-03-25T09:28:32.361Z,99978
2018-03-25T09:31:00.721Z,99990
2018-03-25T09:33:28.860Z,99992
2018-03-25T09:35:57.823Z,99985
2018-03-25T09:38:25.967Z,99985
2018-03-25T09:40:54.759Z,99989
2018-03-25T09:43:30.532Z,99991
2018-03-25T09:45:58.935Z,99989
2018-03-25T09:48:28.940Z,99997
2018-03-25T09:50:58.638Z,100009
2018-03-25T09:53:26.988Z,100008
2018-03-25T09:55:55.088Z,100008
2018-03-25T09:58:23.767Z,100005
2018-03-25T10:00:58.324Z,100009
2018-03-25T10:03:32.349Z,100005
2018-03-25T10:06:00.634Z,100017
2018-03-25T10:08:28.945Z,100008
2018-03-25T10:10:57.072Z,100011
2018-03-25T10:13:25.236Z,100003
2018-03-25T10:15:53.731Z,100004
2018-03-25T10:18:22.631Z,100015
2018-03-25T10:20:51.500Z,100010
2018-03-25T10:23:19.605Z,100019
2018-03-25T10:25:48.380Z,100013
2018-03-25T10:28:16.558Z,100016
2018-03-25T10:30:45.574Z,100027
2018-03-25T10:33:14.394Z,100013
2018-03-25T10:35:42.616Z,100025
2018-03-25T10:38:11.489Z,100016
2018-03-25T10:40:39.592Z,100016
2018-03-25T10:43:10.953Z,100024
2018-03-25T10:45:39.099Z,100027
2018-03-25T10:48:08.274Z,100024
2018-03-25T10:50:36.676Z,100018
2018-03-25T10:53:05.577Z,100030
2018-03-25T10:55:36.096Z,100014
2018-03-25T10:58:04.981Z,100020
2018-03-25T11:00:34.238Z,100007
2018-03-25T11:03:02.759Z,100018
2018-03-25T11:05:30.930Z,100025
2018-03-25T11:07:59.112Z,100020
2018-03-25T11:10:28.024Z,100023
2018-03-25T11:12:57.115Z,100024
2018-03-25T11:15:25.231Z,100023
2018-03-25T11:17:57.434Z,100029
2018-03-25T11:20:26.016Z,100015
2018-03-25T11:22:54.205Z,100020
2018-03-25T11:25:23.264Z,100012
2018-03-25T11:27:51.419Z,100014
2018-03-25T11:30:19.738Z,100017
2018-03-25T11:32:48.859Z,100016
2018-03-25T11:35:17.002Z,100025
2018-03-25T11:37:45.604Z,100031
2018-03-25T11:40:13.942Z,100031
2018-03-25T11:42:42.415Z,100030
2018-03-25T11:45:10.625Z,100031
2018-03-25T11:47:42.599Z,100027
2018-03-25T11:50:12.493Z,100032
2018-03-25T11:52:40.767Z,100027
2018-03-25T11:55:08.962Z,100024
2018-03-25T11:57:37.149Z,100025
2018-03-25T12:00:06.129Z,100028
2018-03-25T12:02:36.110Z,100030
2018-03-25T12:05:04.327Z,100027
2018-03-25T12:07:33.563Z,100013
2018-03-25T12:10:03.195Z,100023
2018-03-25T12:12:31.552Z,100023
2018-03-25T12:14:59.942Z,100025
2018-03-25T12:17:28.302Z,100024
2018-03-25T12:19:59.518Z,100026
2018-03-25T12:22:27.895Z,100024
2018-03-25T12:24:57.185Z,100021
2018-03-25T12:27:25.713Z,100030
2018-03-25T12:29:54.667Z,100029
2018-03-25T12:32:24.704Z,100032
2018-03-25T12:34:52.843Z,100031
2018-03-25T12:37:20.939Z,100027
2018-03-25T12:39:49.299Z,100028
2018-03-25T12:42:18.198Z,100025
2018-03-25T12:44:46.438Z,100029
2018-03-25T12:47:16.608Z,100030
2018-03-25T12:49:44.720Z,100028
2018-03-25T12:52:14.069Z,100033
2018-03-25T12:54:42.860Z,100035
2018-03-25T12:57:11.757Z,100033
2018-03-25T12:59:40.569Z,100037
2018-03-25T13:02:08.877Z,100032
2018-03-25T13:04:38.055Z,100035
2018-03-25T13:07:07.911Z,100035
2018-03-25T13:09:36.829Z,100038
2018-03-25T13:12:05.733Z,100028
2018-03-25T13:14:34.829Z,100025
2018-03-25T13:17:03.940Z,100030
2018-03-25T13:19:32.826Z,100027
2018-03-25T13:22:00.997Z,100028
2018-03-25T13:24:30.576Z,100029
2018-03-25T13:26:59.380Z,100031
2018-03-25T13:29:27.515Z,100037
2018-03-25T13:31:55.603Z,100036
2018-03-25T13:34:24.513Z,100035
2018-03-25T13:36:52.579Z,100006
2018-03-25T13:39:21.474Z,100038
2018-03-25T13:41:50.346Z,100038
2018-03-25T13:44:19.260Z,100037
2018-03-25T13:46:47.902Z,100034
2018-03-25T13:49:16.383Z,100030
2018-03-25T13:51:44.620Z,100037
2018-03-25T13:54:13.615Z,100033
2018-03-25T13:56:42.390Z,100020
2018-03-25T13:59:10.636Z,100025
2018-03-25T14:01:38.830Z,100018
2018-03-25T14:04:07.075Z,100021
2018-03-25T14:06:35.595Z,100030
2018-03-25T14:09:03.761Z,100028
2018-03-25T14:11:36.697Z,100032
2018-03-25T14:18:14.184Z,100022
2018-03-25T14:30:47.753Z,100034
2018-03-25T14:49:01.216Z,100029
2018-03-25T14:56:14.382Z,100040
2018-03-25T15:10:22.328Z,100052
2018-03-25T15:12:50.436Z,100047
2018-03-25T15:15:23.414Z,100054
2018-03-25T15:17:51.712Z,100059
2018-03-25T15:20:20.913Z,100059
2018-03-25T15:22:49.023Z,100061
2018-03-25T15:25:17.128Z,100054
2018-03-25T15:27:45.366Z,100059
2018-03-25T15:30:13.750Z,100049
2018-03-25T15:32:41.894Z,100062
2018-03-25T15:35:09.996Z,100053
2018-03-25T15:37:38.181Z,100061
2018-03-25T15:40:10.019Z,100069
2018-03-25T15:42:38.903Z,100073
2018-03-25T15:45:07.807Z,100077
2018-03-25T15:47:35.927Z,100069
2018-03-25T15:50:04.028Z,100073
2018-03-25T15:52:32.233Z,100054
2018-03-25T15:55:00.337Z,100079
2018-03-25T15:57:28.436Z,100079
2018-03-25T15:59:56.612Z,100085
2018-03-25T16:02:24.748Z,100084
2018-03-25T16:04:52.894Z,100082
2018-03-25T16:07:21.000Z,100093
2018-03-25T16:09:49.121Z,100095
2018-03-25T16:12:17.208Z,100095
2018-03-25T16:14:45.320Z,100103
2018-03-25T16:17:13.708Z,100101
2018-03-25T16:19:41.816Z,100103
2018-03-25T16:22:09.966Z,100109
2018-03-25T16:24:38.075Z,100111
2018-03-25T16:27:07.298Z,100114
2018-03-25T16:29:35.396Z,100121
2018-03-25T16:32:03.736Z,100120
2018-03-25T16:34:31.862Z,100081
2018-03-25T16:36:59.939Z,100118
2018-03-25T16:39:28.063Z,100124
2018-03-25T16:41:56.348Z,100126
2018-03-25T16:44:24.453Z,100132
2018-03-25T16:46:52.564Z,100139
2018-03-25T16:49:21.155Z,100137
2018-03-25T16:51:49.272Z,100138
2018-03-25T16:54:17.574Z,100146
2018-03-25T16:56:45.660Z,100143
2018-03-25T16:59:13.987Z,100151
2018-03-25T17:01:42.092Z,100147
2018-03-25T17:04:10.347Z,100155
2018-03-25T17:06:38.500Z,100161
2018-03-25T17:09:06.600Z,100162
2018-03-25T17:11:34.698Z,100167
2018-03-25T17:14:02.785Z,100157
2018-03-25T17:16:31.668Z,100175
2018-03-25T17:19:00.528Z,100171
2018-03-25T17:21:28.623Z,100182
2018-03-25T17:23:56.714Z,100185
2018-03-25T17:26:24.862Z,100186
2018-03-25T17:28:53.711Z,100189
2018-03-25T17:31:21.841Z,100191
2018-03-25T17:33:49.936Z,100191
2018-03-25T17:36:18.036Z,100192
2018-03-25T17:38:46.147Z,100191
2018-03-25T17:41:14.270Z,100199
2018-03-25T17:43:43.095Z,100199
2018-03-25T17:46:11.181Z,100201
2018-03-25T17:48:39.287Z,100209
2018-03-25T17:51:07.363Z,100207
2018-03-25T17:53:35.472Z,100221
2018-03-25T17:56:03.591Z,100212
2018-03-25T17:58:32.710Z,100215
2018-03-25T18:01:00.842Z,100213
2018-03-25T18:03:30.349Z,100241
2018-03-25T18:06:00.256Z,100222
2018-03-25T18:08:28.340Z,100239
2018-03-25T18:10:57.228Z,100237
2018-03-25T18:13:26.092Z,100245
2018-03-25T18:15:54.219Z,100239
2018-03-25T18:18:23.207Z,100239
2018-03-25T18:20:56.293Z,100249
2018-03-25T18:23:21.487Z,100248
2018-03-25T18:25:50.824Z,100249
2018-03-25T18:28:19.192Z,100252
2018-03-25T18:30:47.375Z,100263
2018-03-25T18:33:15.480Z,100259
2018-03-25T18:35:44.410Z,100264
2018-03-25T18:38:12.514Z,100271
2018-03-25T18:40:42.260Z,100274
2018-03-25T18:43:10.363Z,100271
2018-03-25T18:45:39.273Z,100286
2018-03-25T18:48:07.350Z,100284
2018-03-25T18:50:35.471Z,100280
2018-03-25T18:53:03.541Z,100288
2018-03-25T18:55:31.634Z,100288
2018-03-25T18:58:00.728Z,100295
2018-03-25T19:00:28.804Z,100296
2018-03-25T19:02:57.756Z,100299
2018-03-25T19:05:25.832Z,100302
2018-03-25T19:07:53.944Z,100316
2018-03-25T19:10:22.795Z,100316
2018-03-25T19:12:50.872Z,100317
2018-03-25T19:15:18.976Z,100320
2018-03-25T19:17:47.814Z,100325
2018-03-25T19:20:16.046Z,100319
2018-03-25T19:22:44.117Z,100325
2018-03-25T19:25:12.257Z,100330
2018-03-25T19:27:40.319Z,100330
2018-03-25T19:30:08.584Z,100330
2018-03-25T19:32:36.658Z,100322
2018-03-25T19:35:04.751Z,100319
2018-03-25T19:37:33.164Z,100324
2018-03-25T19:40:01.258Z,100326
2018-03-25T19:42:30.136Z,100333
2018-03-25T19:44:58.243Z,100331
2018-03-25T19:47:26.362Z,100334
2018-03-25T19:49:55.087Z,100345
2018-03-25T19:52:23.199Z,100341
2018-03-25T19:54:51.580Z,100342
2018-03-25T19:57:19.896Z,100337
2018-03-25T19:59:48.014Z,100344
2018-03-25T20:02:16.700Z,100353
2018-03-25T20:04:45.128Z,100346
2018-03-25T20:07:14.121Z,100348
2018-03-25T20:09:42.232Z,100353
2018-03-25T20:12:10.327Z,100355
2018-03-25T20:14:38.630Z,100348
2018-03-25T20:17:06.735Z,100354
2018-03-25T20:19:35.585Z,100361
2018-03-25T20:22:03.927Z,100365
2018-03-25T20:24:32.015Z,100372
2018-03-25T20:27:00.412Z,100364
2018-03-25T20:29:28.522Z,100368
2018-03-25T20:31:56.668Z,100365
2018-03-25T20:34:25.432Z,100364
2018-03-25T20:36:53.758Z,100370
2018-03-25T20:39:22.714Z,100372
2018-03-25T20:41:50.802Z,100370
2018-03-25T20:44:18.916Z,100372
2018-03-25T20:46:47.149Z,100374
2018-03-25T20:49:15.263Z,100368
2018-03-25T20:51:44.431Z,100376
2018-03-25T20:54:13.387Z,100379
2018-03-25T20:56:41.459Z,100384
2018-03-25T20:59:09.571Z,100381
2018-03-25T21:01:37.693Z,100374
2018-03-25T21:04:05.772Z,100380
2018-03-25T21:06:35.834Z,100383
2018-03-25T21:09:06.338Z,100385
2018-03-25T21:11:34.742Z,100379
2018-03-25T21:14:03.097Z,100392
2018-03-25T21:16:31.221Z,100385
2018-03-25T21:18:59.410Z,100390
2018-03-25T21:21:27.804Z,100391
2018-03-25T21:23:56.690Z,100396
2018-03-25T21:26:24.801Z,100391
2018-03-25T21:28:55.120Z,100392
2018-03-25T21:31:23.207Z,100399
2018-03-25T21:33:52.441Z,100396
2018-03-25T21:36:21.031Z,100392
2018-03-25T21:38:49.234Z,100404
2018-03-25T21:41:17.553Z,100416
2018-03-25T21:43:45.667Z,100398
2018-03-25T21:46:14.110Z,100401
2018-03-25T21:48:42.216Z,100398
2018-03-25T21:51:10.311Z,100397
2018-03-25T21:53:38.426Z,100402
2018-03-25T21:56:06.543Z,100403
2018-03-25T21:58:34.634Z,100403
2018-03-25T22:01:03.195Z,100404
2018-03-25T22:03:31.293Z,100407
2018-03-25T22:05:59.377Z,100408
2018-03-25T22:08:27.492Z,100410
2018-03-25T22:10:55.579Z,100411
2018-03-25T22:13:23.643Z,100407
2018-03-25T22:15:51.744Z,100414
2018-03-25T22:18:19.827Z,100414
2018-03-25T22:20:48.064Z,100415
2018-03-25T22:23:16.134Z,100415
2018-03-25T22:25:44.276Z,100413
2018-03-25T22:28:12.396Z,100408
2018-03-25T22:30:40.547Z,100410
2018-03-25T22:33:08.637Z,100418
2018-03-25T22:35:37.023Z,100422
2018-03-25T22:38:05.107Z,100432
2018-03-25T22:40:33.186Z,100424
2018-03-25T22:43:01.284Z,100409
2018-03-25T22:45:30.127Z,100423
2018-03-25T22:47:58.320Z,100431
2018-03-25T22:50:26.387Z,100429
2018-03-25T22:52:54.467Z,100423
2018-03-25T22:55:23.345Z,100426
2018-03-25T22:57:51.437Z,100439
2018-03-25T23:00:19.560Z,100440
2018-03-25T23:02:47.679Z,100432
2018-03-25T23:05:16.436Z,100425
2018-03-25T23:07:44.516Z,100432
2018-03-25T23:10:12.612Z,100427
2018-03-25T23:12:40.687Z,100427
2018-03-25T23:15:08.799Z,100426
2018-03-25T23:17:36.892Z,100424
2018-03-25T23:20:04.989Z,100429
2018-03-25T23:22:33.057Z,100428
2018-03-25T23:25:01.142Z,100425
2018-03-25T23:27:29.284Z,100435
2018-03-25T23:29:58.303Z,100431
2018-03-25T23:32:26.392Z,100429
2018-03-25T23:34:55.232Z,100439
2018-03-25T23:37:23.327Z,100435
2018-03-25T23:39:51.566Z,100431
2018-03-25T23:42:19.942Z,100429
2018-03-25T23:44:48.039Z,100435
2018-03-25T23:47:16.151Z,100430
2018-03-25T23:49:47.095Z,100429
2018-03-25T23:52:15.943Z,100427
2018-03-25T23:54:44.047Z,100435
2018-03-25T23:57:12.903Z,100435
2018-03-25T23:59:42.043Z,100436
